Time;durP1;ratioP1;P1;durP2;ratioP2;P2;SDS_P1;SDS_P2;PMS_P1;PMS_P2;Temp;Humidity;BMP_temperature;BMP_pressure;BME280_temperature;BME280_humidity;BME280_pressure;Samples;Min_cycle;Max_cycle;Signal;HPM_P1;HPM_P2
2023/01/01 00:01:51;;;;;;;14.10;11.60;;;;;;;;;;4998036;28;20177;-53
2023/01/01 00:04:18;;;;;;;18.03;12.80;;;;;;;;;;4994982;28;20183;-53
2023/01/01 00:06:44;;;;;;;18.93;12.27;;;;;;;;;;4998859;28;20184;-53
2023/01/01 00:11:56;;;;;;;13.53;11.30;;;;;;;;;;4999534;28;20197;-54
2023/01/01 00:14:22;;;;;;;14.87;10.97;;;;;;;;;;5005413;28;20210;-54
2023/01/01 00:16:48;;;;;;;13.30;10.60;;;;;;;;;;5004025;28;20202;-53
2023/01/01 00:19:14;;;;;;;13.03;11.43;;;;;;;;;;5003137;28;20219;-54
2023/01/01 00:21:40;;;;;;;11.93;10.23;;;;;;;;;;4998564;28;20481;-53
2023/01/01 00:24:06;;;;;;;12.27;9.90;;;;;;;;;;5003068;28;20190;-53
2023/01/01 00:26:32;;;;;;;10.10;9.10;;;;;;;;;;5003866;28;20186;-53
2023/01/01 00:28:58;;;;;;;11.63;8.77;;;;;;;;;;5003979;28;20268;-53
2023/01/01 00:31:24;;;;;;;11.07;9.10;;;;;;;;;;5000473;28;20188;-54
2023/01/01 00:33:52;;;;;;;13.30;10.17;;;;;;;;;;5004032;28;20197;-53
2023/01/01 00:36:19;;;;;;;9.23;7.90;;;;;;;;;;5001041;28;20279;-54
2023/01/01 00:38:45;;;;;;;11.50;8.70;;;;;;;;;;4993317;28;20183;-53
2023/01/01 00:41:12;;;;;;;11.90;8.37;;;;;;;;;;4997057;28;20246;-54
2023/01/01 00:43:38;;;;;;;11.87;7.70;;;;;;;;;;4980228;28;20182;-54
2023/01/01 00:46:05;;;;;;;12.03;7.23;;;;;;;;;;5005466;28;20251;-54
2023/01/01 00:48:31;;;;;;;8.93;7.80;;;;;;;;;;5002944;28;20194;-53
2023/01/01 00:50:57;;;;;;;10.80;8.37;;;;;;;;;;5000282;28;20190;-54
2023/01/01 00:53:23;;;;;;;13.97;7.80;;;;;;;;;;5000243;28;20325;-53
2023/01/01 00:55:50;;;;;;;11.40;7.67;;;;;;;;;;4998988;28;20198;-54
2023/01/01 00:58:17;;;;;;;8.50;7.07;;;;;;;;;;4988308;28;20577;-54
2023/01/01 01:00:43;;;;;;;9.33;7.80;;;;;;;;;;5002279;28;20190;-54
2023/01/01 01:03:26;;;;;;;9.93;7.57;;;;;;;;;;5007421;28;20179;-53
2023/01/01 01:06:13;;;;;;;9.20;7.07;;;;;;;;;;4994835;28;20193;-54
2023/01/01 01:08:40;;;;;;;9.07;7.37;;;;;;;;;;5004320;28;20786;-53
2023/01/01 01:11:07;;;;;;;10.23;6.87;;;;;;;;;;5001009;28;20228;-53
2023/01/01 01:13:34;;;;;;;6.73;5.90;;;;;;;;;;5000496;28;20430;-53
2023/01/01 01:16:01;;;;;;;9.03;6.17;;;;;;;;;;4997109;28;20576;-53
2023/01/01 01:18:27;;;;;;;10.33;7.13;;;;;;;;;;4993666;28;20202;-53
2023/01/01 01:20:54;;;;;;;11.87;6.77;;;;;;;;;;4994486;28;20642;-52
2023/01/01 01:23:20;;;;;;;6.50;5.47;;;;;;;;;;4980355;28;20183;-53
2023/01/01 01:25:47;;;;;;;11.10;6.60;;;;;;;;;;4999965;28;20186;-52
2023/01/01 01:28:13;;;;;;;7.80;5.60;;;;;;;;;;5002957;28;20286;-52
2023/01/01 01:30:41;;;;;;;9.87;5.53;;;;;;;;;;5000497;28;20187;-52
2023/01/01 01:33:07;;;;;;;5.70;4.93;;;;;;;;;;5003368;28;20187;-53
2023/01/01 01:35:33;;;;;;;7.20;4.93;;;;;;;;;;5004694;28;20206;-52
2023/01/01 01:37:59;;;;;;;7.33;4.90;;;;;;;;;;5005381;28;20630;-53
2023/01/01 01:40:25;;;;;;;4.87;4.47;;;;;;;;;;4986790;28;20192;-53
2023/01/01 01:42:51;;;;;;;5.00;4.10;;;;;;;;;;5000126;28;20651;-53
2023/01/01 01:45:18;;;;;;;7.90;5.40;;;;;;;;;;5003878;28;20189;-52
2023/01/01 01:47:44;;;;;;;8.23;4.60;;;;;;;;;;5007272;28;20276;-52
2023/01/01 01:50:16;;;;;;;5.93;4.60;;;;;;;;;;5002932;28;20276;-52
2023/01/01 01:52:49;;;;;;;6.43;4.30;;;;;;;;;;4999598;28;20190;-52
2023/01/01 01:55:15;;;;;;;9.10;4.40;;;;;;;;;;4993429;28;20216;-52
2023/01/01 01:57:41;;;;;;;6.17;3.80;;;;;;;;;;4995366;28;20184;-53
2023/01/01 02:00:09;;;;;;;8.87;4.40;;;;;;;;;;4998339;28;20285;-53
2023/01/01 02:02:36;;;;;;;4.40;3.73;;;;;;;;;;4997549;28;20179;-52
2023/01/01 02:05:03;;;;;;;6.20;4.27;;;;;;;;;;5001134;28;20684;-52
2023/01/01 02:07:30;;;;;;;6.53;3.73;;;;;;;;;;5003789;28;20193;-53
2023/01/01 02:09:56;;;;;;;4.03;3.30;;;;;;;;;;5003076;28;20194;-53
2023/01/01 02:12:23;;;;;;;6.77;3.47;;;;;;;;;;4999830;28;20310;-52
2023/01/01 02:14:49;;;;;;;4.43;3.27;;;;;;;;;;5005095;28;20212;-53
2023/01/01 02:17:20;;;;;;;7.27;3.10;;;;;;;;;;5004695;28;20210;-53
2023/01/01 02:19:46;;;;;;;3.67;2.70;;;;;;;;;;5004515;28;20176;-53
2023/01/01 02:22:22;;;;;;;3.93;3.27;;;;;;;;;;5007493;28;20542;-53
2023/01/01 02:24:56;;;;;;;4.07;3.03;;;;;;;;;;4995949;28;20202;-52
2023/01/01 02:27:41;;;;;;;4.40;3.10;;;;;;;;;;5007493;28;20653;-52
2023/01/01 02:30:08;;;;;;;6.23;4.67;;;;;;;;;;4995984;28;20685;-53
2023/01/01 02:32:37;;;;;;;3.73;2.67;;;;;;;;;;5005236;28;20283;-53
2023/01/01 02:37:50;;;;;;;3.53;2.83;;;;;;;;;;5001641;28;20267;-52
2023/01/01 02:40:18;;;;;;;3.80;2.80;;;;;;;;;;5004600;28;20171;-53
2023/01/01 02:46:01;;;;;;;4.37;3.03;;;;;;;;;;5003104;28;20243;-52
2023/01/01 02:48:41;;;;;;;6.10;2.60;;;;;;;;;;4986257;28;20238;-53
2023/01/01 02:51:13;;;;;;;4.70;2.53;;;;;;;;;;4966332;28;20653;-52
2023/01/01 02:53:55;;;;;;;3.43;2.57;;;;;;;;;;4980399;28;20190;-52
2023/01/01 02:56:27;;;;;;;2.70;2.40;;;;;;;;;;4975430;28;20189;-53
2023/01/01 03:01:57;;;;;;;5.10;3.07;;;;;;;;;;4981340;28;20183;-53
2023/01/01 03:04:33;;;;;;;6.13;2.00;;;;;;;;;;4989167;28;20176;-52
2023/01/01 03:07:11;;;;;;;2.77;2.40;;;;;;;;;;4983368;28;20808;-53
2023/01/01 03:09:40;;;;;;;5.37;2.90;;;;;;;;;;4982637;28;20518;-52
2023/01/01 03:12:38;;;;;;;4.37;2.70;;;;;;;;;;4984528;28;20589;-53
2023/01/01 03:15:06;;;;;;;2.80;2.43;;;;;;;;;;4972307;28;20208;-52
2023/01/01 03:17:34;;;;;;;2.60;2.40;;;;;;;;;;4978244;28;20261;-53
2023/01/01 03:20:02;;;;;;;4.10;3.07;;;;;;;;;;4974216;28;20189;-53
2023/01/01 03:22:31;;;;;;;3.20;2.63;;;;;;;;;;4987596;28;20212;-53
2023/01/01 03:25:08;;;;;;;2.77;2.47;;;;;;;;;;4982361;28;20822;-52
2023/01/01 03:27:36;;;;;;;3.43;2.43;;;;;;;;;;4979312;28;20191;-53
2023/01/01 03:30:07;;;;;;;3.60;2.43;;;;;;;;;;4981081;28;20180;-53
2023/01/01 03:33:02;;;;;;;3.67;2.27;;;;;;;;;;4980079;28;20187;-53
2023/01/01 03:35:30;;;;;;;3.43;2.27;;;;;;;;;;4985514;28;20199;-53
2023/01/01 03:37:58;;;;;;;2.80;2.57;;;;;;;;;;4982333;28;20647;-53
2023/01/01 03:40:25;;;;;;;2.67;2.20;;;;;;;;;;4988617;28;20630;-53
2023/01/01 03:42:55;;;;;;;3.13;2.70;;;;;;;;;;4985784;28;20210;-53
2023/01/01 03:45:35;;;;;;;3.70;2.37;;;;;;;;;;4978834;28;20727;-53
2023/01/01 03:48:01;;;;;;;2.63;2.20;;;;;;;;;;4998227;28;20229;-53
2023/01/01 03:50:46;;;;;;;2.40;2.20;;;;;;;;;;5001718;28;20222;-53
2023/01/01 03:53:18;;;;;;;4.10;2.27;;;;;;;;;;5000533;28;20183;-52
2023/01/01 03:55:55;;;;;;;6.30;3.17;;;;;;;;;;4997559;28;20214;-52
2023/01/01 03:58:27;;;;;;;2.40;2.20;;;;;;;;;;5004314;28;20645;-53
2023/01/01 04:00:55;;;;;;;2.63;2.43;;;;;;;;;;5002609;28;20175;-52
2023/01/01 04:03:26;;;;;;;4.23;3.90;;;;;;;;;;5001905;28;20191;-53
2023/01/01 04:05:52;;;;;;;2.60;2.40;;;;;;;;;;5006124;28;20191;-53
2023/01/01 04:08:18;;;;;;;2.80;2.30;;;;;;;;;;5002947;28;20617;-53
2023/01/01 04:10:50;;;;;;;3.30;2.40;;;;;;;;;;5001651;28;20192;-53
2023/01/01 04:13:17;;;;;;;4.47;2.47;;;;;;;;;;5006954;28;20191;-53
2023/01/01 04:15:43;;;;;;;4.03;2.80;;;;;;;;;;5001431;28;20211;-53
2023/01/01 04:18:09;;;;;;;4.67;3.97;;;;;;;;;;4998912;28;20207;-53
2023/01/01 04:20:35;;;;;;;3.87;2.63;;;;;;;;;;5005547;28;20168;-53
2023/01/01 04:23:01;;;;;;;3.80;2.43;;;;;;;;;;4997325;28;20174;-53
2023/01/01 04:25:28;;;;;;;2.97;2.23;;;;;;;;;;5002480;28;20286;-53
2023/01/01 04:27:54;;;;;;;2.50;2.30;;;;;;;;;;5002071;28;20300;-52
2023/01/01 04:30:20;;;;;;;3.47;2.30;;;;;;;;;;5005950;28;20266;-54
2023/01/01 04:32:46;;;;;;;2.80;2.50;;;;;;;;;;5006298;28;20530;-53
2023/01/01 04:35:13;;;;;;;3.33;2.43;;;;;;;;;;5006036;28;20219;-53
2023/01/01 04:37:40;;;;;;;2.30;2.10;;;;;;;;;;5002072;28;20186;-53
2023/01/01 04:40:07;;;;;;;5.57;3.60;;;;;;;;;;4996952;28;20176;-52
2023/01/01 04:42:33;;;;;;;2.67;2.47;;;;;;;;;;5005938;28;20185;-53
2023/01/01 04:44:59;;;;;;;3.00;2.40;;;;;;;;;;4997903;28;20179;-53
2023/01/01 04:47:26;;;;;;;3.70;2.33;;;;;;;;;;5002197;28;20232;-54
2023/01/01 04:49:52;;;;;;;3.27;2.10;;;;;;;;;;5003786;28;20688;-52
2023/01/01 04:52:19;;;;;;;5.50;2.80;;;;;;;;;;5005222;28;20233;-53
2023/01/01 04:54:45;;;;;;;2.53;2.30;;;;;;;;;;4996003;28;20220;-53
2023/01/01 04:57:11;;;;;;;4.10;2.30;;;;;;;;;;5001536;28;20522;-53
2023/01/01 04:59:37;;;;;;;4.40;2.50;;;;;;;;;;5004867;28;20181;-53
2023/01/01 05:02:03;;;;;;;8.43;2.63;;;;;;;;;;4997605;28;20579;-52
2023/01/01 05:04:29;;;;;;;3.13;2.17;;;;;;;;;;4997433;28;20682;-53
2023/01/01 05:06:55;;;;;;;2.63;2.27;;;;;;;;;;4998752;28;20250;-53
2023/01/01 05:09:21;;;;;;;4.30;2.17;;;;;;;;;;5001949;28;20699;-53
2023/01/01 05:11:47;;;;;;;4.37;2.20;;;;;;;;;;4996301;28;20551;-53
2023/01/01 05:14:13;;;;;;;5.67;2.13;;;;;;;;;;4995477;28;20233;-53
2023/01/01 05:16:40;;;;;;;3.73;2.70;;;;;;;;;;5003129;28;20645;-53
2023/01/01 05:19:06;;;;;;;3.47;2.30;;;;;;;;;;5001735;28;20178;-53
2023/01/01 05:21:33;;;;;;;6.60;2.97;;;;;;;;;;4997257;28;20174;-53
2023/01/01 05:24:01;;;;;;;2.63;2.17;;;;;;;;;;4997005;28;20214;-53
2023/01/01 05:26:28;;;;;;;2.77;2.47;;;;;;;;;;5000383;28;20246;-53
2023/01/01 05:28:55;;;;;;;4.87;2.90;;;;;;;;;;5004385;28;20241;-53
2023/01/01 05:31:22;;;;;;;2.73;2.10;;;;;;;;;;4999728;28;20603;-53
2023/01/01 05:33:48;;;;;;;4.90;2.23;;;;;;;;;;4996945;28;20530;-53
2023/01/01 05:36:18;;;;;;;4.00;2.43;;;;;;;;;;4998546;28;20708;-53
2023/01/01 05:38:45;;;;;;;5.23;2.20;;;;;;;;;;4999582;28;20190;-53
2023/01/01 05:41:13;;;;;;;8.30;3.60;;;;;;;;;;5005325;28;20276;-52
2023/01/01 05:43:39;;;;;;;2.63;2.30;;;;;;;;;;4994474;28;20270;-53
2023/01/01 05:46:06;;;;;;;3.70;2.60;;;;;;;;;;4995282;28;20220;-54
2023/01/01 05:48:35;;;;;;;6.10;2.50;;;;;;;;;;4998691;28;20272;-53
2023/01/01 05:51:05;;;;;;;3.37;2.37;;;;;;;;;;4986075;28;20638;-53
2023/01/01 05:53:31;;;;;;;3.03;2.33;;;;;;;;;;4999131;28;20191;-53
2023/01/01 05:55:58;;;;;;;3.97;2.27;;;;;;;;;;5006349;28;20211;-53
2023/01/01 05:58:24;;;;;;;3.40;2.30;;;;;;;;;;4997118;28;20176;-53
2023/01/01 06:00:50;;;;;;;2.23;2.00;;;;;;;;;;4995789;28;20178;-53
2023/01/01 06:03:16;;;;;;;5.33;2.20;;;;;;;;;;4994731;28;20304;-54
2023/01/01 06:05:42;;;;;;;2.93;2.20;;;;;;;;;;5000030;28;20175;-53
2023/01/01 06:08:08;;;;;;;6.33;2.70;;;;;;;;;;5000810;28;20184;-53
2023/01/01 06:10:34;;;;;;;5.00;2.20;;;;;;;;;;5002701;28;20180;-53
2023/01/01 06:13:00;;;;;;;6.17;2.63;;;;;;;;;;4998881;28;20185;-53
2023/01/01 06:15:26;;;;;;;5.00;2.97;;;;;;;;;;5003238;28;20203;-53
2023/01/01 06:17:53;;;;;;;3.23;2.33;;;;;;;;;;4999803;28;20204;-52
2023/01/01 06:20:19;;;;;;;4.07;2.77;;;;;;;;;;5001995;28;20588;-53
2023/01/01 06:22:45;;;;;;;3.40;2.43;;;;;;;;;;5004241;28;20218;-53
2023/01/01 06:25:12;;;;;;;2.77;2.17;;;;;;;;;;4997783;28;20756;-53
2023/01/01 06:27:38;;;;;;;3.43;2.83;;;;;;;;;;5005262;28;20217;-53
2023/01/01 06:30:08;;;;;;;3.43;2.63;;;;;;;;;;4998998;28;20630;-53
2023/01/01 06:32:34;;;;;;;4.10;2.27;;;;;;;;;;4997898;28;20542;-52
2023/01/01 06:35:00;;;;;;;2.53;2.33;;;;;;;;;;4998836;28;20218;-53
2023/01/01 06:37:28;;;;;;;5.13;2.53;;;;;;;;;;4974416;28;20190;-52
2023/01/01 06:39:54;;;;;;;4.93;3.00;;;;;;;;;;4994311;28;20183;-52
2023/01/01 06:42:20;;;;;;;3.30;2.33;;;;;;;;;;4997576;28;20198;-53
2023/01/01 06:44:46;;;;;;;3.47;2.23;;;;;;;;;;4996620;28;20185;-52
2023/01/01 06:47:12;;;;;;;3.72;3.00;;;;;;;;;;4995115;28;20785;-53
2023/01/01 06:49:38;;;;;;;3.97;3.47;;;;;;;;;;5002379;28;20189;-53
2023/01/01 06:52:04;;;;;;;3.57;3.27;;;;;;;;;;4997873;28;20182;-53
2023/01/01 06:54:30;;;;;;;5.70;2.87;;;;;;;;;;4996809;28;20199;-53
2023/01/01 06:56:56;;;;;;;4.90;2.70;;;;;;;;;;4996785;28;20528;-52
2023/01/01 06:59:22;;;;;;;3.97;2.30;;;;;;;;;;4999501;28;20178;-52
2023/01/01 07:01:48;;;;;;;4.97;3.23;;;;;;;;;;4998581;28;20376;-53
2023/01/01 07:04:15;;;;;;;4.97;2.90;;;;;;;;;;5003716;28;20194;-52
2023/01/01 07:06:41;;;;;;;7.20;3.00;;;;;;;;;;5002940;28;20256;-52
2023/01/01 07:09:08;;;;;;;2.93;2.63;;;;;;;;;;4978209;28;20185;-52
2023/01/01 07:11:35;;;;;;;5.13;2.97;;;;;;;;;;5007194;28;20651;-53
2023/01/01 07:14:01;;;;;;;4.90;2.63;;;;;;;;;;5005194;28;20187;-52
2023/01/01 07:16:27;;;;;;;3.43;2.50;;;;;;;;;;5008736;28;20184;-52
2023/01/01 07:18:53;;;;;;;2.87;2.10;;;;;;;;;;4995300;28;20259;-52
2023/01/01 07:21:30;;;;;;;5.27;2.73;;;;;;;;;;4999573;28;20171;-52
2023/01/01 07:23:59;;;;;;;5.73;2.73;;;;;;;;;;4999715;28;20278;-52
2023/01/01 07:26:26;;;;;;;4.53;2.83;;;;;;;;;;4999554;28;20192;-52
2023/01/01 07:28:52;;;;;;;3.17;2.50;;;;;;;;;;5005101;28;20646;-52
2023/01/01 07:31:19;;;;;;;4.93;4.50;;;;;;;;;;5005342;28;20241;-52
2023/01/01 07:33:45;;;;;;;4.67;2.87;;;;;;;;;;5000641;28;20183;-52
2023/01/01 07:36:11;;;;;;;5.13;4.60;;;;;;;;;;4993108;28;20298;-52
2023/01/01 07:38:37;;;;;;;4.53;2.87;;;;;;;;;;5003014;28;20602;-53
2023/01/01 07:41:03;;;;;;;5.73;2.30;;;;;;;;;;5007003;28;20592;-52
2023/01/01 07:43:29;;;;;;;2.90;2.70;;;;;;;;;;5001768;28;20241;-52
2023/01/01 07:45:55;;;;;;;2.90;2.47;;;;;;;;;;4998564;28;20187;-53
2023/01/01 07:48:21;;;;;;;3.40;2.70;;;;;;;;;;5002370;28;20225;-52
2023/01/01 07:50:47;;;;;;;4.63;2.70;;;;;;;;;;4995623;28;20179;-53
2023/01/01 07:53:13;;;;;;;2.97;2.67;;;;;;;;;;5001620;28;20640;-53
2023/01/01 07:55:39;;;;;;;5.50;2.77;;;;;;;;;;4998908;28;21247;-53
2023/01/01 07:58:05;;;;;;;7.40;3.17;;;;;;;;;;4999643;28;20710;-53
2023/01/01 08:00:31;;;;;;;4.00;2.63;;;;;;;;;;4995781;28;20812;-53
2023/01/01 08:02:57;;;;;;;3.97;2.83;;;;;;;;;;4995454;28;20841;-53
2023/01/01 08:05:24;;;;;;;2.93;2.57;;;;;;;;;;5009199;28;20188;-53
2023/01/01 08:07:50;;;;;;;3.93;3.00;;;;;;;;;;5006923;28;20179;-53
2023/01/01 08:10:19;;;;;;;3.70;2.60;;;;;;;;;;5000268;28;20634;-53
2023/01/01 08:12:45;;;;;;;4.03;2.83;;;;;;;;;;4995975;28;20192;-53
2023/01/01 08:15:11;;;;;;;4.13;2.50;;;;;;;;;;5007123;28;20199;-53
2023/01/01 08:17:38;;;;;;;4.07;2.67;;;;;;;;;;5000804;28;20298;-53
2023/01/01 08:20:05;;;;;;;4.80;2.90;;;;;;;;;;5001543;28;20162;-53
2023/01/01 08:22:37;;;;;;;3.33;2.40;;;;;;;;;;5003569;28;20652;-53
2023/01/01 08:25:04;;;;;;;2.53;2.20;;;;;;;;;;4999402;28;20179;-52
2023/01/01 08:27:30;;;;;;;3.27;2.50;;;;;;;;;;4996994;28;20174;-53
2023/01/01 08:29:56;;;;;;;7.10;2.70;;;;;;;;;;4994048;28;20190;-53
2023/01/01 08:32:22;;;;;;;3.43;2.50;;;;;;;;;;4997514;28;20813;-53
2023/01/01 08:34:48;;;;;;;4.07;2.40;;;;;;;;;;5004949;28;20649;-53
2023/01/01 08:37:14;;;;;;;6.60;2.93;;;;;;;;;;5003780;28;20160;-53
2023/01/01 08:39:46;;;;;;;3.53;3.10;;;;;;;;;;5000690;28;20180;-53
2023/01/01 08:42:12;;;;;;;5.03;2.70;;;;;;;;;;5002747;28;20179;-53
2023/01/01 08:44:38;;;;;;;4.40;2.50;;;;;;;;;;4995255;28;20314;-53
2023/01/01 08:47:04;;;;;;;4.00;2.43;;;;;;;;;;5004330;28;20731;-53
2023/01/01 08:49:31;;;;;;;3.43;3.13;;;;;;;;;;4999852;28;20548;-53
2023/01/01 08:51:57;;;;;;;2.80;2.50;;;;;;;;;;4999934;28;20190;-53
2023/01/01 08:54:23;;;;;;;5.23;2.57;;;;;;;;;;5006037;28;20214;-53
2023/01/01 08:56:49;;;;;;;4.13;3.07;;;;;;;;;;5000055;28;20271;-52
2023/01/01 08:59:15;;;;;;;2.70;2.50;;;;;;;;;;5004271;28;20271;-53
2023/01/01 09:01:41;;;;;;;3.67;2.50;;;;;;;;;;5002803;28;20269;-53
2023/01/01 09:04:11;;;;;;;5.67;2.50;;;;;;;;;;5001691;28;20206;-53
2023/01/01 09:06:37;;;;;;;2.83;2.53;;;;;;;;;;4996973;28;20183;-53
2023/01/01 09:09:03;;;;;;;3.37;2.47;;;;;;;;;;4994875;28;20237;-53
2023/01/01 09:11:29;;;;;;;4.33;2.77;;;;;;;;;;4990570;28;20183;-53
2023/01/01 09:13:55;;;;;;;5.00;2.80;;;;;;;;;;4999817;28;20282;-53
2023/01/01 09:16:21;;;;;;;2.70;2.50;;;;;;;;;;4997197;28;20203;-52
2023/01/01 09:18:48;;;;;;;4.57;2.60;;;;;;;;;;4978355;28;20704;-53
2023/01/01 09:21:14;;;;;;;3.43;2.70;;;;;;;;;;4999485;28;20183;-53
2023/01/01 09:23:40;;;;;;;6.13;2.70;;;;;;;;;;5003634;28;20179;-53
2023/01/01 09:26:07;;;;;;;6.13;3.47;;;;;;;;;;5002479;28;20190;-53
2023/01/01 09:28:33;;;;;;;3.87;2.77;;;;;;;;;;4992829;28;20198;-53
2023/01/01 09:31:00;;;;;;;5.30;3.47;;;;;;;;;;4999206;28;20218;-53
2023/01/01 09:33:26;;;;;;;4.80;2.47;;;;;;;;;;4998813;28;20184;-53
2023/01/01 09:35:52;;;;;;;4.13;3.80;;;;;;;;;;5003542;28;20286;-53
2023/01/01 09:38:18;;;;;;;3.87;2.30;;;;;;;;;;4999732;28;20913;-53
2023/01/01 09:41:00;;;;;;;4.20;2.43;;;;;;;;;;4999457;28;20607;-54
2023/01/01 09:43:32;;;;;;;3.93;2.50;;;;;;;;;;4991339;28;20642;-53
2023/01/01 09:46:05;;;;;;;5.50;2.80;;;;;;;;;;4994218;28;20194;-53
2023/01/01 09:48:31;;;;;;;3.80;2.60;;;;;;;;;;5003346;28;20697;-53
2023/01/01 09:50:58;;;;;;;3.63;2.50;;;;;;;;;;5001529;28;20281;-53
2023/01/01 09:53:34;;;;;;;4.50;3.00;;;;;;;;;;5002497;28;20666;-53
2023/01/01 09:56:01;;;;;;;3.90;2.63;;;;;;;;;;5003188;28;20275;-53
2023/01/01 09:58:28;;;;;;;5.50;2.50;;;;;;;;;;5002050;28;20182;-52
2023/01/01 10:00:55;;;;;;;3.23;2.53;;;;;;;;;;4997926;28;20687;-53
2023/01/01 10:03:21;;;;;;;6.47;2.70;;;;;;;;;;5000178;28;20642;-53
2023/01/01 10:05:50;;;;;;;3.17;2.87;;;;;;;;;;5001857;28;20270;-53
2023/01/01 10:08:16;;;;;;;5.27;2.80;;;;;;;;;;4998822;28;20222;-53
2023/01/01 10:11:06;;;;;;;5.63;2.87;;;;;;;;;;5000936;28;20217;-53
2023/01/01 10:13:36;;;;;;;5.77;2.77;;;;;;;;;;4996992;28;20305;-53
2023/01/01 10:16:10;;;;;;;6.37;3.17;;;;;;;;;;4993503;28;20567;-54
2023/01/01 10:18:37;;;;;;;3.77;2.67;;;;;;;;;;4998638;28;20209;-53
2023/01/01 10:21:15;;;;;;;6.07;3.13;;;;;;;;;;5005488;28;20197;-53
2023/01/01 10:23:49;;;;;;;5.93;3.53;;;;;;;;;;4997730;28;20175;-54
2023/01/01 10:26:16;;;;;;;3.83;2.37;;;;;;;;;;5000634;28;20265;-53
2023/01/01 10:28:46;;;;;;;2.57;2.30;;;;;;;;;;4993955;28;20179;-54
2023/01/01 10:31:25;;;;;;;3.63;2.77;;;;;;;;;;5005323;28;20182;-54
2023/01/01 10:33:51;;;;;;;3.97;2.47;;;;;;;;;;5002248;28;20201;-54
2023/01/01 10:36:19;;;;;;;3.63;2.67;;;;;;;;;;5003115;28;20202;-54
2023/01/01 10:38:45;;;;;;;5.27;2.53;;;;;;;;;;5009530;28;20167;-53
2023/01/01 10:41:12;;;;;;;5.03;2.60;;;;;;;;;;5003049;28;20283;-54
2023/01/01 10:43:38;;;;;;;4.67;2.30;;;;;;;;;;4976671;28;20193;-53
2023/01/01 10:46:04;;;;;;;4.13;2.73;;;;;;;;;;4998526;28;20187;-54
2023/01/01 10:48:32;;;;;;;4.77;2.43;;;;;;;;;;5002540;28;20226;-54
2023/01/01 10:50:59;;;;;;;3.57;2.77;;;;;;;;;;5007268;28;20282;-54
2023/01/01 10:53:25;;;;;;;2.97;2.67;;;;;;;;;;5002676;28;20642;-54
2023/01/01 10:55:58;;;;;;;4.67;2.60;;;;;;;;;;5006835;28;20275;-54
2023/01/01 10:58:36;;;;;;;5.17;3.10;;;;;;;;;;5007294;28;20261;-54
2023/01/01 11:01:04;;;;;;;4.93;2.77;;;;;;;;;;4999529;28;20174;-54
2023/01/01 11:03:30;;;;;;;5.17;2.70;;;;;;;;;;4997088;28;20250;-54
2023/01/01 11:06:20;;;;;;;4.33;2.63;;;;;;;;;;4999980;28;20186;-54
2023/01/01 11:08:47;;;;;;;6.00;2.97;;;;;;;;;;5000251;28;21028;-54
2023/01/01 11:11:19;;;;;;;4.60;2.60;;;;;;;;;;5003331;28;20279;-53
2023/01/01 11:13:49;;;;;;;4.77;2.23;;;;;;;;;;5002012;28;20535;-54
2023/01/01 11:16:15;;;;;;;5.00;3.13;;;;;;;;;;5007297;28;20210;-54
2023/01/01 11:18:41;;;;;;;5.90;3.17;;;;;;;;;;4997257;28;20206;-54
2023/01/01 11:21:07;;;;;;;4.17;2.90;;;;;;;;;;4996802;28;20333;-54
2023/01/01 11:23:38;;;;;;;3.37;2.80;;;;;;;;;;5002984;28;20183;-54
2023/01/01 11:26:06;;;;;;;3.53;2.40;;;;;;;;;;5000641;28;20578;-54
2023/01/01 11:28:33;;;;;;;4.60;2.60;;;;;;;;;;4996431;28;20937;-54
2023/01/01 11:31:09;;;;;;;4.80;3.20;;;;;;;;;;4995588;28;20182;-54
2023/01/01 11:33:37;;;;;;;7.13;2.97;;;;;;;;;;4994860;28;20547;-54
2023/01/01 11:36:04;;;;;;;6.93;2.90;;;;;;;;;;4973601;28;20210;-54
2023/01/01 11:38:31;;;;;;;7.57;3.30;;;;;;;;;;4998528;28;20167;-54
2023/01/01 11:41:02;;;;;;;5.43;2.43;;;;;;;;;;5002808;28;20186;-54
2023/01/01 11:43:37;;;;;;;4.33;2.70;;;;;;;;;;4981238;28;20179;-54
2023/01/01 11:46:06;;;;;;;4.37;2.37;;;;;;;;;;4995155;28;20183;-54
2023/01/01 11:48:33;;;;;;;3.33;2.00;;;;;;;;;;4998790;28;20234;-54
2023/01/01 11:51:10;;;;;;;6.50;2.47;;;;;;;;;;5000999;28;20187;-54
2023/01/01 11:53:38;;;;;;;4.20;2.63;;;;;;;;;;4999196;28;20530;-54
2023/01/01 11:56:18;;;;;;;4.27;3.00;;;;;;;;;;5005565;28;20698;-54
2023/01/01 11:58:48;;;;;;;5.10;2.37;;;;;;;;;;5005309;28;20693;-54
2023/01/01 12:01:26;;;;;;;5.77;3.17;;;;;;;;;;5003182;28;20182;-54
2023/01/01 12:04:00;;;;;;;3.53;2.70;;;;;;;;;;4981871;28;20183;-53
2023/01/01 12:06:31;;;;;;;4.80;2.87;;;;;;;;;;5000861;28;20695;-53
2023/01/01 12:09:02;;;;;;;3.90;2.50;;;;;;;;;;4999380;28;20197;-53
2023/01/01 12:11:41;;;;;;;6.97;2.83;;;;;;;;;;5003065;28;20182;-53
2023/01/01 12:14:19;;;;;;;3.27;2.20;;;;;;;;;;5002811;28;20183;-53
2023/01/01 12:17:06;;;;;;;4.57;2.40;;;;;;;;;;5002782;28;20191;-53
2023/01/01 12:19:39;;;;;;;5.80;2.70;;;;;;;;;;4991457;28;20186;-53
2023/01/01 12:22:12;;;;;;;5.93;3.07;;;;;;;;;;4991788;28;20217;-54
2023/01/01 12:24:38;;;;;;;4.77;2.60;;;;;;;;;;4994117;28;20189;-53
2023/01/01 12:27:22;;;;;;;6.00;3.20;;;;;;;;;;4997742;28;20241;-53
2023/01/01 12:29:57;;;;;;;5.67;3.20;;;;;;;;;;4994777;28;20243;-53
2023/01/01 12:32:30;;;;;;;4.23;2.70;;;;;;;;;;4997060;28;20653;-53
2023/01/01 12:35:15;;;;;;;5.30;2.60;;;;;;;;;;5001957;28;20198;-53
2023/01/01 12:38:00;;;;;;;4.37;2.80;;;;;;;;;;4996084;28;20197;-53
2023/01/01 12:40:33;;;;;;;3.63;2.87;;;;;;;;;;4999471;28;20200;-53
2023/01/01 12:43:16;;;;;;;4.40;2.80;;;;;;;;;;4997836;28;20182;-53
2023/01/01 12:45:48;;;;;;;4.63;2.80;;;;;;;;;;5002436;28;20186;-53
2023/01/01 12:48:14;;;;;;;4.20;2.67;;;;;;;;;;5006019;28;20232;-53
2023/01/01 12:50:40;;;;;;;4.67;2.50;;;;;;;;;;4995000;28;20273;-53
2023/01/01 12:53:06;;;;;;;6.23;3.13;;;;;;;;;;5004202;28;20670;-53
2023/01/01 12:55:40;;;;;;;4.37;2.90;;;;;;;;;;4999241;28;20187;-53
2023/01/01 12:58:12;;;;;;;8.77;4.70;;;;;;;;;;4999335;28;20252;-53
2023/01/01 13:00:40;;;;;;;6.53;3.17;;;;;;;;;;4980397;28;20200;-53
2023/01/01 13:03:11;;;;;;;6.07;3.33;;;;;;;;;;4984574;28;20279;-52
2023/01/01 13:05:42;;;;;;;5.10;3.03;;;;;;;;;;5005413;28;20179;-53
2023/01/01 13:08:08;;;;;;;8.43;3.10;;;;;;;;;;4992341;28;20183;-53
2023/01/01 13:10:36;;;;;;;7.83;3.07;;;;;;;;;;5005806;28;20187;-53
2023/01/01 13:13:03;;;;;;;5.07;2.73;;;;;;;;;;5000094;28;20256;-53
2023/01/01 13:15:41;;;;;;;5.97;3.10;;;;;;;;;;4999618;28;20692;-53
2023/01/01 13:18:14;;;;;;;3.30;3.00;;;;;;;;;;4997914;28;20203;-53
2023/01/01 13:20:52;;;;;;;2.60;2.40;;;;;;;;;;5003462;28;20233;-53
2023/01/01 13:23:33;;;;;;;6.77;3.80;;;;;;;;;;5006365;28;20240;-53
2023/01/01 13:26:20;;;;;;;6.43;3.07;;;;;;;;;;4997962;28;20730;-53
2023/01/01 13:28:55;;;;;;;6.77;2.60;;;;;;;;;;4999695;28;20187;-53
2023/01/01 13:31:41;;;;;;;4.30;2.90;;;;;;;;;;4997768;28;20375;-53
2023/01/01 13:34:26;;;;;;;4.47;2.77;;;;;;;;;;4995777;28;20189;-53
2023/01/01 13:37:19;;;;;;;4.17;3.00;;;;;;;;;;5002235;28;20674;-53
2023/01/01 13:40:24;;;;;;;4.40;3.07;;;;;;;;;;4999393;28;20184;-53
2023/01/01 13:42:59;;;;;;;5.37;2.57;;;;;;;;;;4992130;28;20222;-53
2023/01/01 13:45:26;;;;;;;5.00;2.97;;;;;;;;;;4998651;28;20278;-53
2023/01/01 13:48:19;;;;;;;6.40;2.60;;;;;;;;;;4998672;28;20294;-53
2023/01/01 13:50:57;;;;;;;4.50;2.77;;;;;;;;;;4996878;28;20638;-53
2023/01/01 13:53:23;;;;;;;4.73;2.30;;;;;;;;;;4997794;28;20179;-53
2023/01/01 13:55:57;;;;;;;4.90;2.57;;;;;;;;;;4996616;28;20208;-53
2023/01/01 13:58:42;;;;;;;5.80;2.70;;;;;;;;;;4997710;28;20765;-52
2023/01/01 14:01:11;;;;;;;5.60;3.03;;;;;;;;;;4985651;28;20679;-52
2023/01/01 14:03:43;;;;;;;5.83;2.70;;;;;;;;;;5006284;28;20242;-52
2023/01/01 14:06:16;;;;;;;4.33;3.17;;;;;;;;;;4995693;28;20665;-52
2023/01/01 14:08:42;;;;;;;3.03;2.30;;;;;;;;;;5006556;28;20169;-52
2023/01/01 14:11:21;;;;;;;6.30;3.03;;;;;;;;;;4995997;28;20182;-52
2023/01/01 14:13:47;;;;;;;5.67;2.60;;;;;;;;;;5010758;28;20182;-52
2023/01/01 14:16:14;;;;;;;5.03;3.07;;;;;;;;;;5011006;28;20205;-53
2023/01/01 14:18:40;;;;;;;8.70;2.90;;;;;;;;;;5008931;28;20213;-52
2023/01/01 14:21:11;;;;;;;5.67;2.83;;;;;;;;;;5005663;28;20188;-53
2023/01/01 14:23:57;;;;;;;3.77;2.50;;;;;;;;;;5004113;28;20233;-52
2023/01/01 14:26:25;;;;;;;4.30;2.87;;;;;;;;;;5003167;28;20281;-52
2023/01/01 14:28:58;;;;;;;4.10;2.63;;;;;;;;;;5010585;28;20210;-53
2023/01/01 14:31:27;;;;;;;6.83;3.10;;;;;;;;;;4999680;28;20387;-53
2023/01/01 14:33:53;;;;;;;5.67;2.97;;;;;;;;;;5005269;28;20175;-53
2023/01/01 14:36:21;;;;;;;3.47;2.93;;;;;;;;;;5009069;28;20209;-52
2023/01/01 14:38:48;;;;;;;4.67;2.40;;;;;;;;;;5009532;28;20224;-53
2023/01/01 14:41:17;;;;;;;5.57;2.50;;;;;;;;;;5009046;28;20173;-53
2023/01/01 14:43:44;;;;;;;4.73;2.40;;;;;;;;;;5004575;28;20215;-53
2023/01/01 14:46:16;;;;;;;5.40;2.77;;;;;;;;;;5008135;28;20186;-53
2023/01/01 14:48:50;;;;;;;6.07;2.60;;;;;;;;;;5011676;28;20305;-53
2023/01/01 14:51:19;;;;;;;3.40;2.50;;;;;;;;;;5001865;28;20187;-53
2023/01/01 14:53:45;;;;;;;2.90;2.40;;;;;;;;;;4990549;28;20182;-53
2023/01/01 14:56:21;;;;;;;5.73;2.27;;;;;;;;;;4992608;28;20187;-53
2023/01/01 14:58:47;;;;;;;4.63;2.57;;;;;;;;;;4997137;28;20191;-53
2023/01/01 15:01:14;;;;;;;6.27;3.63;;;;;;;;;;5007423;28;20174;-53
2023/01/01 15:03:40;;;;;;;3.93;2.73;;;;;;;;;;5009878;28;20699;-52
2023/01/01 15:06:15;;;;;;;4.30;3.10;;;;;;;;;;5009308;28;20175;-53